Aviation Digital Data Service (ADDS)

Output produced by METARs form (2054 UTC 24 April 2018)
found at http://aviationweather.gov/adds/metars/
 
KUTS 241726Z 2418/2518 VRB04KT P6SM SCT250